CheckWX is a tool to help pilots better visualize weather data.  It is not intended as a substitute for an official pre-flight weather briefing.

12:08:50 UTC

PAPG METAR
Petersburg James A Johnson Airport
Petersburg, Alaska, USA
Current

13 mins ago

PAPG 251156Z AUTO 12008G18KT 4SM -SN BR BKN010 OVC014 01/M01 A3002 RMK AO2 CIG 007V011 SLP168 P0006 60015 70015 T00111006 10011 21006 56028 FZRANO
Observed
Feb-25 @ 11:56 UTC
Wind
  • 120° at 8 KTS
  • Gusting to 18 KTS
Visibility
4 SM
Flight Rules
MVFR
Conditions
Light Snow, Mist
Cloud Levels
  • Broken at 1,000' AGL
  • Overcast at 1,400' AGL
Temperature
C / 34°F
Dewpoint
-1°C / 30°F
Humidity
87%
Altimeter
30.02" Hg
Pressure
1016.62 hPa
Current Rain
0.06"
24 Hour Rain
0.15"
Previous

56 mins ago

PAPG 251113Z AUTO 07007KT 010V120 2SM -SN BR OVC008 01/M01 A3003 RMK AO2 VIS 1 1/4V4 CIG 007V013 P0002 FZRANO
Observed
Feb-25 @ 11:13 UTC
Wind
  • 070° at 7 KTS
Visibility
2 SM
Flight Rules
IFR
Conditions
Light Snow, Mist
Cloud Levels
  • Overcast at 800' AGL
Temperature
C / 34°F
Dewpoint
-1°C / 30°F
Humidity
87%
Altimeter
30.03" Hg
Pressure
1016.92 hPa
Current Rain
0.02"
Previous

1 hour ago

PAPG 251056Z AUTO VRB05KT 1 3/4SM -SN BR OVC008 01/M01 A3004 RMK AO2 CIG 007V013 SLP175 P0004 T00061006 FZRANO
Observed
Feb-25 @ 10:56 UTC
Wind
  • Variable at 5 KTS
Visibility
1 3/4 SM
Flight Rules
IFR
Conditions
Light Snow, Mist
Cloud Levels
  • Overcast at 800' AGL
Temperature
C / 34°F
Dewpoint
-1°C / 30°F
Humidity
87%
Altimeter
30.04" Hg
Pressure
1017.32 hPa
Current Rain
0.04"